createdAt,value
2019-04-01T00:03:11.053Z,19.07
2019-04-01T00:07:22.052Z,20.80
2019-04-01T00:11:31.697Z,18.63
2019-04-01T00:15:41.592Z,21.60
2019-04-01T00:19:52.104Z,20.20
2019-04-01T00:24:02.722Z,17.80
2019-04-01T00:28:12.539Z,17.60
2019-04-01T00:32:22.722Z,17.50
2019-04-01T00:36:33.610Z,19.27
2019-04-01T00:40:45.423Z,16.83
2019-04-01T00:44:56.410Z,16.67
2019-04-01T00:49:07.597Z,17.20
2019-04-01T00:53:18.326Z,16.80
2019-04-01T00:57:29.275Z,17.00
2019-04-01T01:01:40.351Z,15.30
2019-04-01T01:05:51.374Z,17.07
2019-04-01T01:10:02.383Z,15.43
2019-04-01T01:14:13.722Z,14.10
2019-04-01T01:18:25.088Z,11.40
2019-04-01T01:22:36.242Z,10.03
2019-04-01T01:26:46.600Z,9.30
2019-04-01T01:30:57.761Z,9.83
2019-04-01T01:35:08.340Z,7.67
2019-04-01T01:39:19.524Z,8.13
2019-04-01T01:43:30.447Z,7.50
2019-04-01T01:47:42.584Z,10.73
2019-04-01T01:51:53.372Z,5.57
2019-04-01T01:56:03.703Z,6.13
2019-04-01T02:00:15.763Z,5.30
2019-04-01T02:04:27.312Z,5.63
2019-04-01T02:08:38.598Z,5.83
2019-04-01T02:12:49.044Z,5.10
2019-04-01T02:16:59.783Z,5.07
2019-04-01T02:21:11.232Z,4.53
2019-04-01T02:25:22.041Z,5.10
2019-04-01T02:29:33.223Z,4.57
2019-04-01T02:33:43.762Z,4.37
2019-04-01T02:37:54.641Z,4.37
2019-04-01T02:42:05.389Z,4.20
2019-04-01T02:46:16.192Z,4.90
2019-04-01T02:50:27.020Z,3.40
2019-04-01T02:54:37.650Z,3.70
2019-04-01T02:58:48.384Z,2.67
2019-04-01T03:02:58.614Z,4.10
2019-04-01T03:07:09.233Z,3.23
2019-04-01T03:11:20.112Z,3.67
2019-04-01T03:15:30.956Z,3.23
2019-04-01T03:19:42.572Z,4.60
2019-04-01T03:23:53.580Z,3.53
2019-04-01T03:28:04.595Z,3.60
2019-04-01T03:32:15.494Z,3.77
2019-04-01T03:36:26.358Z,4.47
2019-04-01T03:40:37.236Z,3.83
2019-04-01T03:44:47.937Z,3.13
2019-04-01T03:48:59.916Z,2.97
2019-04-01T03:53:10.507Z,3.90
2019-04-01T03:57:21.674Z,2.70
2019-04-01T04:01:33.007Z,3.23
2019-04-01T04:05:43.567Z,3.17
2019-04-01T04:09:54.841Z,3.33
2019-04-01T04:14:05.192Z,3.73
2019-04-01T04:18:16.585Z,3.83
2019-04-01T04:22:27.141Z,3.20
2019-04-01T04:26:37.630Z,2.70
2019-04-01T04:30:48.502Z,2.87
2019-04-01T04:34:59.908Z,2.70
2019-04-01T04:39:10.684Z,3.03
2019-04-01T04:43:21.840Z,3.07
2019-04-01T04:47:32.687Z,4.10
2019-04-01T04:51:45.068Z,3.10
2019-04-01T04:55:55.362Z,4.63
2019-04-01T05:00:06.122Z,3.87
2019-04-01T05:04:16.901Z,3.93
2019-04-01T05:08:28.204Z,4.30
2019-04-01T05:12:38.801Z,4.10
2019-04-01T05:16:49.494Z,4.07
2019-04-01T05:21:01.698Z,4.90
2019-04-01T05:25:12.349Z,5.07
2019-04-01T05:29:25.360Z,5.23
2019-04-01T05:33:37.947Z,6.23
2019-04-01T05:37:49.421Z,6.43
2019-04-01T05:41:59.989Z,5.70
2019-04-01T05:46:10.579Z,6.93
2019-04-01T05:50:21.312Z,5.80
2019-04-01T05:54:32.339Z,6.50
2019-04-01T05:58:43.019Z,7.97
2019-04-01T06:02:53.841Z,8.03
2019-04-01T06:07:04.527Z,7.30
2019-04-01T06:11:16.009Z,7.57
2019-04-01T06:15:26.555Z,7.27
2019-04-01T06:19:37.455Z,10.63
2019-04-01T06:23:47.991Z,7.80
2019-04-01T06:27:59.086Z,8.63
2019-04-01T06:32:09.590Z,7.37
2019-04-01T06:36:20.444Z,8.90
2019-04-01T06:40:30.965Z,9.27
2019-04-01T06:44:42.084Z,8.77
2019-04-01T06:48:53.282Z,9.37
2019-04-01T06:53:03.754Z,9.67
2019-04-01T06:57:14.690Z,10.50
2019-04-01T07:01:25.659Z,8.73
2019-04-01T07:05:36.546Z,10.03
2019-04-01T07:09:50.303Z,11.03
2019-04-01T07:13:59.596Z,11.53
2019-04-01T07:18:10.635Z,10.50
2019-04-01T07:22:21.158Z,10.20
2019-04-01T07:26:32.806Z,12.50
2019-04-01T07:30:43.565Z,11.70
2019-04-01T07:34:54.514Z,10.50
2019-04-01T07:39:06.340Z,12.50
2019-04-01T07:43:16.938Z,11.30
2019-04-01T07:47:27.763Z,11.27
2019-04-01T07:51:38.927Z,12.00
2019-04-01T07:55:49.469Z,13.73
2019-04-01T08:00:00.745Z,12.30
2019-04-01T08:04:11.522Z,12.00
2019-04-01T08:08:22.117Z,13.60
2019-04-01T08:12:32.377Z,13.47
2019-04-01T08:16:42.916Z,18.00
2019-04-01T08:20:54.181Z,13.37
2019-04-01T08:25:04.950Z,17.73
2019-04-01T08:29:29.381Z,12.60
2019-04-01T08:33:28.613Z,14.90
2019-04-01T08:37:40.636Z,16.90
2019-04-01T08:41:52.243Z,16.07
2019-04-01T08:46:02.875Z,15.73
2019-04-01T08:50:13.565Z,16.37
2019-04-01T08:54:25.153Z,18.80
2019-04-01T08:58:35.478Z,19.27
2019-04-01T09:02:45.552Z,16.07
2019-04-01T09:06:56.460Z,17.90
2019-04-01T09:11:07.099Z,16.17
2019-04-01T09:15:17.699Z,19.93
2019-04-01T09:19:28.995Z,17.40
2019-04-01T09:23:40.860Z,18.00
2019-04-01T09:27:51.979Z,18.07
2019-04-01T09:32:02.423Z,16.57
2019-04-01T09:36:13.275Z,19.00
2019-04-01T09:40:24.264Z,17.13
2019-04-01T09:44:37.001Z,17.67
2019-04-01T09:48:46.548Z,17.10
2019-04-01T09:52:57.275Z,18.80
2019-04-01T09:57:17.564Z,18.33
2019-04-01T10:01:20.343Z,15.40
2019-04-01T10:05:30.742Z,16.43
2019-04-01T10:09:42.038Z,18.93
2019-04-01T10:13:52.387Z,17.37
2019-04-01T10:18:03.301Z,18.20
2019-04-01T10:22:14.112Z,17.20
2019-04-01T10:26:25.244Z,18.20
2019-04-01T10:30:35.450Z,17.80
2019-04-01T10:34:46.252Z,17.73
2019-04-01T10:38:57.524Z,17.20
2019-04-01T10:43:08.722Z,17.70
2019-04-01T10:47:19.269Z,18.07
2019-04-01T10:51:31.175Z,16.83
2019-04-01T10:55:42.673Z,19.33
2019-04-01T10:59:53.984Z,17.33
2019-04-01T11:04:04.882Z,17.00
2019-04-01T11:08:16.230Z,18.27
2019-04-01T11:12:27.747Z,16.03
2019-04-01T11:16:38.746Z,15.90
2019-04-01T11:20:50.086Z,16.93
2019-04-01T11:25:00.647Z,15.83
2019-04-01T11:29:11.986Z,19.73
2019-04-01T11:33:23.272Z,17.27
2019-04-01T11:37:34.094Z,19.13
2019-04-01T11:41:45.516Z,17.20
2019-04-01T11:45:56.031Z,17.53
2019-04-01T11:50:06.665Z,16.80
2019-04-01T11:54:17.949Z,15.53
2019-04-01T11:58:29.192Z,15.90
2019-04-01T12:02:39.743Z,17.20
2019-04-01T12:06:51.599Z,15.73
2019-04-01T12:11:02.567Z,14.67
2019-04-01T12:15:14.823Z,14.37
2019-04-01T12:19:25.370Z,14.47
2019-04-01T12:23:37.207Z,15.93
2019-04-01T12:27:47.752Z,15.83
2019-04-01T12:31:59.884Z,17.87
2019-04-01T12:36:11.766Z,19.00
2019-04-01T12:40:23.904Z,18.80
2019-04-01T12:44:34.563Z,19.17
2019-04-01T12:48:45.374Z,20.40
2019-04-01T12:52:56.498Z,19.20
2019-04-01T12:57:07.479Z,19.30
2019-04-01T13:01:18.284Z,23.53
2019-04-01T13:05:29.975Z,23.90
2019-04-01T13:09:42.006Z,22.77
2019-04-01T13:13:53.827Z,21.57
2019-04-01T13:18:07.258Z,20.30
2019-04-01T13:22:19.181Z,20.97
2019-04-01T13:26:31.103Z,21.27
2019-04-01T13:30:42.163Z,21.07
2019-04-01T13:34:53.076Z,20.00
2019-04-01T13:39:04.278Z,16.70
2019-04-01T13:43:17.011Z,17.67
2019-04-01T13:47:27.916Z,17.83
2019-04-01T13:51:43.109Z,17.50
2019-04-01T13:55:52.527Z,17.53
2019-04-01T14:00:03.656Z,18.47
2019-04-01T14:04:15.064Z,19.03
2019-04-01T14:08:25.311Z,19.93
2019-04-01T14:12:37.019Z,18.27
2019-04-01T14:16:48.333Z,15.53
2019-04-01T14:20:59.388Z,17.50
2019-04-01T14:25:11.007Z,18.63
2019-04-01T14:29:22.015Z,17.23
2019-04-01T14:33:34.536Z,18.37
2019-04-01T14:37:45.476Z,19.90
2019-04-01T14:41:56.114Z,38.57
2019-04-01T14:46:07.216Z,58.30
2019-04-01T14:50:17.640Z,53.80
2019-04-01T14:54:28.846Z,55.10
2019-04-01T14:58:39.665Z,46.77
2019-04-01T15:02:50.203Z,51.37
2019-04-01T15:07:00.804Z,51.63
2019-04-01T15:11:12.327Z,48.30
2019-04-01T15:15:23.766Z,50.40
2019-04-01T15:19:34.284Z,44.27
2019-04-01T15:23:45.168Z,45.37
2019-04-01T15:27:58.262Z,50.87
2019-04-01T15:32:08.193Z,51.93
2019-04-01T15:36:19.440Z,49.30
2019-04-01T15:40:33.038Z,52.07
2019-04-01T15:44:42.787Z,49.27
2019-04-01T15:48:53.239Z,43.63
2019-04-01T15:53:04.371Z,40.13
2019-04-01T15:57:15.352Z,42.27
2019-04-01T16:01:27.560Z,37.63
2019-04-01T16:05:39.098Z,43.87
2019-04-01T16:09:50.059Z,42.60
2019-04-01T16:13:59.932Z,45.77
2019-04-01T16:18:10.758Z,38.40
2019-04-01T16:22:22.058Z,38.87
2019-04-01T16:26:33.781Z,39.90
2019-04-01T16:30:44.908Z,39.00
2019-04-01T16:34:55.962Z,37.00
2019-04-01T16:39:09.196Z,34.57
2019-04-01T16:43:20.559Z,32.80
2019-04-01T16:47:31.110Z,30.10
2019-04-01T16:51:41.879Z,31.43
2019-04-01T16:55:52.566Z,29.13
2019-04-01T17:00:04.250Z,34.97
2019-04-01T17:04:14.743Z,34.97
2019-04-01T17:08:29.535Z,36.80
2019-04-01T17:12:39.068Z,30.27
2019-04-01T17:16:50.179Z,29.83
2019-04-01T17:21:00.642Z,29.40
2019-04-01T17:25:12.869Z,27.43
2019-04-01T17:29:25.152Z,29.23
2019-04-01T17:33:36.667Z,24.40
2019-04-01T17:37:48.667Z,26.10
2019-04-01T17:41:59.907Z,25.47
2019-04-01T17:46:10.706Z,25.60
2019-04-01T17:50:22.277Z,24.20
2019-04-01T17:54:32.992Z,26.80
2019-04-01T17:58:44.433Z,24.60
2019-04-01T18:02:55.979Z,24.87
2019-04-01T18:07:08.274Z,27.63
2019-04-01T18:11:19.540Z,22.67
2019-04-01T18:15:32.071Z,26.13
2019-04-01T18:19:44.311Z,24.97
2019-04-01T18:23:55.682Z,23.33
2019-04-01T18:28:07.388Z,22.60
2019-04-01T18:32:20.314Z,21.63
2019-04-01T18:36:34.592Z,22.67
2019-04-01T18:40:44.689Z,21.93
2019-04-01T18:44:55.753Z,25.00
2019-04-01T18:49:06.293Z,23.47
2019-04-01T18:53:17.837Z,22.10
2019-04-01T18:57:31.190Z,22.90
2019-04-01T19:01:43.283Z,22.30
2019-04-01T19:05:55.098Z,23.60
2019-04-01T19:10:06.642Z,19.90
2019-04-01T19:14:18.672Z,19.47
2019-04-01T19:18:29.813Z,19.80
2019-04-01T19:22:41.109Z,20.53
2019-04-01T19:26:52.235Z,19.03
2019-04-01T19:31:04.241Z,19.50
2019-04-01T19:35:16.143Z,20.50
2019-04-01T19:39:30.050Z,19.03
2019-04-01T19:43:39.848Z,19.93
2019-04-01T19:47:50.841Z,19.63
2019-04-01T19:52:02.552Z,19.37
2019-04-01T19:56:13.861Z,20.33
2019-04-01T20:00:28.193Z,17.03
2019-04-01T20:04:37.060Z,17.43
2019-04-01T20:08:49.812Z,17.23
2019-04-01T20:13:01.166Z,17.87
2019-04-01T20:17:12.446Z,16.07
2019-04-01T20:21:24.457Z,16.33
2019-04-01T20:25:35.006Z,17.67
2019-04-01T20:29:46.373Z,18.30
2019-04-01T20:33:58.426Z,17.43
2019-04-01T20:38:10.209Z,18.20
2019-04-01T20:42:20.930Z,18.33
2019-04-01T20:46:33.613Z,17.40
2019-04-01T20:50:44.116Z,15.57
2019-04-01T20:54:55.595Z,15.77
2019-04-01T20:59:07.040Z,17.03
2019-04-01T21:03:18.404Z,15.60
2019-04-01T21:07:29.054Z,16.47
2019-04-01T21:11:42.662Z,14.17
2019-04-01T21:15:54.282Z,15.90
2019-04-01T21:20:05.270Z,14.80
2019-04-01T21:24:16.195Z,14.87
2019-04-01T21:28:27.591Z,14.07
2019-04-01T21:32:38.505Z,14.27
2019-04-01T21:36:49.856Z,14.77
2019-04-01T21:41:00.654Z,14.27
2019-04-01T21:45:12.416Z,13.33
2019-04-01T21:49:24.264Z,14.77
2019-04-01T21:53:35.093Z,13.70
2019-04-01T21:57:48.216Z,13.50
2019-04-01T22:01:58.896Z,12.20
2019-04-01T22:06:09.722Z,12.77
2019-04-01T22:10:20.758Z,11.10
2019-04-01T22:14:31.768Z,18.77
2019-04-01T22:18:43.016Z,11.53
2019-04-01T22:22:54.437Z,15.07
2019-04-01T22:27:06.728Z,10.60
2019-04-01T22:31:17.897Z,11.23
2019-04-01T22:35:38.573Z,11.57
2019-04-01T22:39:45.447Z,11.07
2019-04-01T22:43:56.678Z,12.60
2019-04-01T22:48:07.599Z,12.43
2019-04-01T22:52:18.891Z,15.13
2019-04-01T22:56:31.520Z,11.83
2019-04-01T23:00:42.297Z,12.83
2019-04-01T23:04:53.282Z,12.93
2019-04-01T23:09:05.838Z,11.40
2019-04-01T23:13:16.691Z,11.10
2019-04-01T23:17:27.394Z,11.30
2019-04-01T23:21:38.338Z,15.17
2019-04-01T23:25:49.091Z,10.97
2019-04-01T23:30:01.224Z,12.57
2019-04-01T23:34:13.211Z,11.27
2019-04-01T23:38:25.062Z,14.93
2019-04-01T23:42:37.971Z,16.90
2019-04-01T23:46:51.234Z,12.97
2019-04-01T23:51:02.277Z,12.87
2019-04-01T23:56:02.007Z,15.63
